Time;durP1;ratioP1;P1;durP2;ratioP2;P2;SDS_P1;SDS_P2;PMS_P1;PMS_P2;Temp;Humidity;BMP_temperature;BMP_pressure;BME280_temperature;BME280_humidity;BME280_pressure;Samples;Min_cycle;Max_cycle;Signal;HPM_P1;HPM_P2
2022/08/07 10:47:37;;;;;;;1.63;0.40;;;20.10;99.30;;;;;;5129772;27;20387;-35
2022/08/07 10:50:15;;;;;;;5.55;0.50;;;22.20;84.30;;;;;;5096475;28;20039;-35
2022/08/07 10:52:47;;;;;;;4.30;0.38;;;22.40;83.90;;;;;;5117912;28;20035;-35
2022/08/07 10:55:21;;;;;;;0.20;0.20;;;22.50;83.00;;;;;;5127828;28;20402;-35
2022/08/07 10:57:54;;;;;;;0.38;0.20;;;22.40;80.50;;;;;;5118775;27;20355;-35
2022/08/07 11:00:20;;;;;;;0.82;0.30;;;22.50;81.10;;;;;;5109372;28;20039;-35
2022/08/07 11:03:06;;;;;;;1.10;0.40;;;22.50;80.20;;;;;;5099452;28;20028;-34
2022/08/07 11:05:47;;;;;;;0.50;0.20;;;22.50;79.20;;;;;;5107782;28;20085;-34
2022/08/07 11:08:31;;;;;;;2.78;0.30;;;22.60;78.50;;;;;;5108924;28;20027;-32
2022/08/07 11:11:04;;;;;;;0.35;0.20;;;22.70;77.70;;;;;;5094301;28;20020;-33
2022/08/07 11:13:58;;;;;;;1.48;0.20;;;22.60;76.20;;;;;;5109061;28;20020;-33
2022/08/07 11:16:35;;;;;;;1.25;0.20;;;22.60;73.10;;;;;;5109040;28;20026;-32
2022/08/07 11:19:21;;;;;;;0.20;0.20;;;22.40;73.60;;;;;;5108858;28;20020;-33
2022/08/07 11:22:04;;;;;;;0.40;0.10;;;22.30;74.30;;;;;;5076911;28;20111;-33
2022/08/07 11:24:44;;;;;;;0.30;0.10;;;22.40;74.50;;;;;;5108575;28;20036;-33
2022/08/07 11:27:21;;;;;;;0.73;0.40;;;22.50;73.80;;;;;;5104495;28;20029;-33
2022/08/07 11:30:05;;;;;;;0.85;0.20;;;22.50;73.60;;;;;;5108199;28;20028;-33
2022/08/07 11:32:50;;;;;;;0.17;0.10;;;22.50;73.30;;;;;;5117238;28;20348;-34
2022/08/07 11:35:29;;;;;;;0.10;0.10;;;22.60;72.40;;;;;;5123351;27;20039;-35
2022/08/07 11:38:03;;;;;;;0.43;0.20;;;22.60;72.70;;;;;;5125876;27;20024;-34
2022/08/07 11:40:47;;;;;;;1.75;0.65;;;22.60;72.10;;;;;;5122300;28;20052;-35
2022/08/07 11:43:26;;;;;;;7.10;2.08;;;22.70;71.60;;;;;;5124759;27;20027;-34
2022/08/07 11:46:04;;;;;;;7.18;1.80;;;22.70;70.70;;;;;;5112924;28;20059;-34
2022/08/07 11:48:54;;;;;;;2.88;1.58;;;22.80;71.00;;;;;;5100613;28;20036;-34
2022/08/07 11:51:20;;;;;;;3.90;1.42;;;22.80;70.20;;;;;;5095038;28;20056;-34
2022/08/07 11:54:04;;;;;;;7.60;2.03;;;22.80;70.60;;;;;;5094834;28;20084;-34
2022/08/07 11:56:52;;;;;;;2.88;1.40;;;22.90;69.70;;;;;;5094636;28;20412;-35
2022/08/07 11:59:26;;;;;;;7.68;1.52;;;22.90;69.50;;;;;;5094413;28;20016;-34
2022/08/07 12:02:10;;;;;;;3.08;1.00;;;22.90;70.10;;;;;;5094723;28;20024;-34
2022/08/07 12:05:00;;;;;;;2.13;0.95;;;22.90;67.00;;;;;;5081245;28;20028;-35
2022/08/07 12:07:39;;;;;;;1.23;0.70;;;22.80;68.00;;;;;;5078721;28;20234;-34
2022/08/07 12:10:16;;;;;;;2.35;1.20;;;22.70;67.70;;;;;;5079325;28;20031;-34
2022/08/07 12:12:50;;;;;;;4.18;2.30;;;22.60;69.20;;;;;;5076347;28;20029;-34
2022/08/07 12:15:25;;;;;;;5.93;3.03;;;22.60;68.00;;;;;;5073904;28;20026;-34
2022/08/07 12:18:19;;;;;;;7.00;4.22;;;22.60;66.80;;;;;;5098308;28;20020;-33
2022/08/07 12:21:12;;;;;;;2.58;1.60;;;22.50;66.00;;;;;;5097330;28;20027;-32
2022/08/07 12:23:44;;;;;;;1.80;0.90;;;22.40;66.00;;;;;;5086428;28;20048;-32
2022/08/07 12:26:25;;;;;;;3.35;1.00;;;22.20;66.90;;;;;;5082254;28;20033;-32
2022/08/07 12:29:12;;;;;;;2.17;1.02;;;22.20;66.50;;;;;;5093560;28;20545;-32
2022/08/07 12:31:47;;;;;;;1.77;0.80;;;22.10;67.00;;;;;;5095644;28;20042;-33
2022/08/07 12:34:14;;;;;;;5.93;0.95;;;22.10;67.20;;;;;;5094668;28;20471;-32
2022/08/07 12:36:43;;;;;;;1.42;0.93;;;22.20;67.50;;;;;;5095790;28;20020;-32
2022/08/07 12:39:10;;;;;;;0.93;0.60;;;22.20;67.80;;;;;;5094704;28;20024;-33
2022/08/07 12:41:37;;;;;;;1.23;0.70;;;22.20;67.50;;;;;;5085316;28;20059;-32
2022/08/07 12:44:06;;;;;;;0.57;0.30;;;22.30;67.10;;;;;;5096014;28;20013;-33
2022/08/07 12:46:55;;;;;;;1.08;0.50;;;22.30;65.40;;;;;;5108363;28;20043;-33
2022/08/07 12:49:37;;;;;;;2.95;0.50;;;22.30;64.70;;;;;;5100927;28;20034;-33
2022/08/07 12:52:11;;;;;;;0.45;0.40;;;22.20;65.80;;;;;;5100953;28;20028;-32
2022/08/07 12:55:03;;;;;;;0.63;0.40;;;22.20;65.10;;;;;;5091771;28;20040;-33
2022/08/07 12:57:31;;;;;;;0.43;0.38;;;22.10;65.00;;;;;;5087580;28;20061;-33
2022/08/07 13:00:00;;;;;;;1.77;0.40;;;22.10;64.90;;;;;;5083981;28;20028;-33
2022/08/07 13:02:59;;;;;;;2.00;0.20;;;22.00;64.80;;;;;;5075539;28;20490;-32
2022/08/07 13:05:59;;;;;;;0.60;0.22;;;21.90;64.80;;;;;;5078669;28;20521;-33
2022/08/07 13:08:54;;;;;;;1.00;0.17;;;21.90;65.00;;;;;;5053369;28;20032;-33
2022/08/07 13:11:38;;;;;;;0.20;0.20;;;21.90;64.70;;;;;;5091911;28;20050;-33
2022/08/07 13:14:23;;;;;;;0.90;0.30;;;21.90;63.90;;;;;;5088284;28;20051;-33
2022/08/07 13:17:26;;;;;;;2.47;0.40;;;21.90;64.30;;;;;;5106167;28;20051;-33
2022/08/07 13:20:01;;;;;;;1.38;0.30;;;21.90;62.80;;;;;;5064697;27;20053;-33
2022/08/07 13:23:02;;;;;;;0.17;0.10;;;22.00;65.30;;;;;;5101458;28;20035;-32
2022/08/07 13:25:49;;;;;;;0.50;0.38;;;22.10;64.80;;;;;;5101235;28;20103;-34
2022/08/07 13:28:25;;;;;;;2.42;0.30;;;22.20;63.50;;;;;;5093345;28;20019;-33
2022/08/07 13:30:57;;;;;;;1.75;0.38;;;22.10;63.80;;;;;;5093190;28;20023;-34
2022/08/07 13:33:27;;;;;;;0.68;0.52;;;22.20;64.80;;;;;;5106558;28;20029;-35
